• Join FlightAware (Why Join?)
  • Login
  • US Flag GB Flag 
11:23 EST


 

Airport Tracker/Info


-or-


 

Live Flight TrackerFlight Track Log ✈ SWA2058 ✈ 20-Apr-2013 ✈ KRNO - KLAS

Flight Track Log - Related Links

Times and Time Zones

All times are in EDT time to prevent confusion due to time zone crossing. See the SWA2058 flight status page for this flight to view local times or setup timezone preferences in your user account.

Time Position Orientation Groundspeed Altitude Reporting Facility
EDT Latitude Longitude Course Direction KTS MPH feet Rate Location/Type
19:06 39.4667 -119.7667 138° Southeast 184 212 6,100  Level Northern Cal TRACON
19:07 39.4000 -119.7667 180° South 237 273 9,400 3,120 Climbing Northern Cal TRACON
19:07 39.3611 -119.7511 163° South 315 362 10,900 2,760 Climbing Oakland Center
19:08 39.2986 -119.6722 136° Southeast 320 368 13,700 3,000 Climbing Oakland Center
19:09 39.2264 -119.5814 136° Southeast 355 409 17,100 3,180 Climbing Oakland Center
19:10 39.1503 -119.4794 134° Southeast 385 443 20,200 3,060 Climbing Oakland Center
19:11 39.2144 -119.2449 138° Southeast  Level FlightAware Approximate
19:11 39.0692 -119.3714 134° Southeast 411 473 23,400  Level Oakland Center
19:12 38.9825 -119.2586 135° Southeast 438 504 26,200 2,700 Climbing Oakland Center
19:13 38.8950 -119.1425 134° Southeast 452 520 29,000 2,340 Climbing Oakland Center
19:14 38.7900 -119.0028 134° Southeast 455 524 31,000 960 Climbing Oakland Center
19:15 38.6975 -118.8825 135° Southeast 469 540 31,000 180 Level Oakland Center
19:16 38.6050 -118.7647 135° Southeast 471 542 31,400 960 Climbing Oakland Center
19:17 38.5136 -118.6458 134° Southeast 470 541 33,000 780 Climbing Oakland Center
19:18 38.4181 -118.5225 135° Southeast 486 559 33,000  Level Oakland Center
19:19 38.3208 -118.3992 135° Southeast 493 567 33,000  Level Oakland Center
19:20 38.2258 -118.2772 135° Southeast 487 560 33,000  Level Oakland Center
19:21 38.1194 -118.1419 135° Southeast 493 567 33,000  Level Oakland Center
19:22 38.0244 -118.0206 135° Southeast 487 560 33,000  Level Oakland Center
19:23 37.9269 -117.8975 135° Southeast 495 570 33,000  Level Oakland Center
19:24 37.8303 -117.7764 135° Southeast 491 565 33,000  Level Oakland Center
19:25 37.7336 -117.6553 135° Southeast 492 566 33,000  Level Oakland Center
19:26 37.6372 -117.5342 135° Southeast 493 567 33,000  Level Oakland Center
19:27 37.5403 -117.4131 135° Southeast 493 567 33,000  Level Oakland Center
19:28 37.4217 -117.2697 136° Southeast 493 567 33,000  Level Oakland Center
19:29 37.3083 -117.1758 147° Southeast 489 563 33,000  Level Oakland Center
19:30 37.1967 -117.0789 145° Southeast 490 564 33,000 -360 Level Oakland Center
19:32 37.0850 -116.9869 147° Southeast 482 555 32,300 -1,500 Descending Oakland Center
19:33 36.9758 -116.8928 145° Southeast 478 550 30,000 -2,220 Descending Oakland Center
19:34 36.8686 -116.8050 147° Southeast 467 537 27,800 -1,980 Descending Oakland Center
19:35 36.7747 -116.7100 141° Southeast 444 511 26,000 -1,740 Descending Oakland Center
19:36 36.6981 -116.5978 130° Southeast 432 497 24,300 -1,800 Descending Oakland Center
19:37 36.6233 -116.4922 131° Southeast 421 484 22,400 -1,680 Descending Oakland Center
19:38 36.5519 -116.3878 130° Southeast 409 471 21,000 -1,140 Descending Oakland Center
19:38 36.5272 -116.3544 133° Southeast 396 456 21,000  Level Los Angeles Center
19:39 36.4556 -116.2569 132° Southeast 386 444 21,000 -300 Level Los Angeles Center
19:40 36.3808 -116.1494 131° Southeast 397 457 20,500 -1,140 Descending Los Angeles Center
19:41 36.3083 -116.0453 131° Southeast 375 432 18,700 -1,800 Descending Los Angeles Center
19:42 36.2397 -115.9519 132° Southeast 369 425 16,900 -1,800 Descending Los Angeles Center
19:42 36.2067 -115.9106 135° Southeast 364 419 16,100 -900 Descending Los Angeles Center
19:43 36.1822 -115.8417 114° Southeast 353 406 16,000 -540 Descending Los Angeles Center
19:43 36.1678 -115.7981 112° Southeast 356 410 15,600 -1,380 Descending Los Angeles Center
19:44 36.1461 -115.7300 111° Southeast 352 405 14,600 -1,620 Descending Los Angeles Center
19:44 36.1283 -115.6831 115° Southeast 348 400 14,000 -600 Descending Los Angeles Center
19:45 36.1114 -115.6258 110° East 326 375 14,000  Level Los Angeles Center
19:45 36.0867 -115.5875 129° Southeast 332 382 14,000  Level Los Angeles Center
19:46 36.0539 -115.5558 142° Southeast 296 341 14,000 -300 Level Los Angeles Center
19:47 36.0158 -115.5494 172° South 309 356 13,700 -840 Descending Los Angeles Center
19:47 35.9769 -115.5394 168° South 289 333 13,200 -1,140 Descending Los Angeles Center
19:48 35.9256 -115.5308 172° South 287 330 12,500 -1,080 Descending Los Angeles Center
19:48 35.8975 -115.5169 158° South 291 335 12,100 -1,200 Descending Los Angeles Center
19:49 35.8492 -115.4972 162° South 289 333 11,300 -1,380 Descending Los Angeles Center
19:49 35.8078 -115.4794 161° South 286 329 10,700 -1,140 Descending Los Angeles Center
19:50 35.7767 -115.4706 167° South 280 322 10,200 -1,020 Descending Los Angeles Center
19:50 35.7344 -115.4517 160° South 281 323 9,700 -900 Descending Los Angeles Center
19:51 35.7139 -115.4300 139° Southeast 257 296 9,300 -1,020 Descending Los Angeles Center
19:51 35.7233 -115.3847 76° East 267 307 8,700 -1,140 Descending Los Angeles Center
19:52 35.7444 -115.3617 42° Northeast 245 282 8,200 -900 Descending Los Angeles Center
19:52 35.7778 -115.3369 31° Northeast 250 288 7,800 -600 Descending Los Angeles Center
19:53 35.8072 -115.3228 21° North 237 273 7,600 -300 Descending Los Angeles Center
19:53 35.8367 -115.3050 26° Northeast 241 277 7,500 -600 Descending Los Angeles Center
19:54 35.8650 -115.2906 22° Northeast 227 261 7,000 -1,080 Descending Los Angeles Center
19:54 35.8925 -115.2739 26° Northeast 232 267 6,400 -1,200 Descending Los Angeles Center
19:55 35.9147 -115.2611 25° Northeast 206 237 5,800 -1,380 Descending Los Angeles Center
19:55 35.9531 -115.2389 25° Northeast 216 249 5,000 -1,140 Descending Los Angeles Center
19:56 35.9644 -115.2314 28° Northeast 198 228 4,700 -720 Descending Los Angeles Center
19:56 35.9944 -115.2153 23° Northeast 210 242 4,300 -1,140 Descending Los Angeles Center
19:57 36.0147 -115.2044 23° Northeast 191 220 3,600 -1,260 Descending Los Angeles Center
19:57 36.0431 -115.1894 23° Northeast 148 170 3,000 -900 Descending Los Angeles Center
19:58 36.0550 -115.1806 31° Northeast 151 174 2,700 -300 Descending Los Angeles Center
19:58 36.0733 -115.1689 27° Northeast 136 157 2,700  Level Los Angeles Center
20:00 36.0801 -115.1523 95° East  Level Estimated
20:07 36.0801 -115.1523 270° West  Level Estimated